createdAt,value
2023-03-14T00:01:33.399Z,101132.88
2023-03-14T00:04:00.681Z,101131.59
2023-03-14T00:06:28.026Z,101131.59
2023-03-14T00:08:55.851Z,101125.41
2023-03-14T00:11:23.120Z,101116.13
2023-03-14T00:13:53.960Z,101115.84
2023-03-14T00:16:21.407Z,101115.59
2023-03-14T00:18:48.543Z,101114.63
2023-03-14T00:21:15.584Z,101106.91
2023-03-14T00:23:43.608Z,101111.22
2023-03-14T00:26:16.444Z,101108.50
2023-03-14T00:28:44.740Z,101102.91
2023-03-14T00:31:14.557Z,101093.75
2023-03-14T00:33:43.176Z,101090.25
2023-03-14T00:36:12.787Z,101087.88
2023-03-14T00:38:40.955Z,101086.56
2023-03-14T00:41:11.005Z,101072.25
2023-03-14T00:43:38.474Z,101066.00
2023-03-14T00:46:06.031Z,101063.94
2023-03-14T00:48:33.817Z,101054.78
2023-03-14T00:51:01.712Z,101055.88
2023-03-14T00:53:28.654Z,101058.00
2023-03-14T00:55:55.556Z,101055.09
2023-03-14T00:58:22.501Z,101048.00
2023-03-14T01:00:52.287Z,101049.22
2023-03-14T01:03:19.109Z,101048.84
2023-03-14T01:05:45.979Z,101037.41
2023-03-14T01:08:13.051Z,101038.00
2023-03-14T01:10:41.460Z,101034.00
2023-03-14T01:13:09.783Z,101033.78
2023-03-14T01:15:37.937Z,101029.88
2023-03-14T01:18:05.366Z,101032.59
2023-03-14T01:20:32.263Z,101038.16
2023-03-14T01:22:59.210Z,101032.13
2023-03-14T01:25:26.476Z,101040.16
2023-03-14T01:27:53.543Z,101035.31
2023-03-14T01:30:20.697Z,101036.47
2023-03-14T01:32:47.688Z,101034.25
2023-03-14T01:35:14.569Z,101034.53
2023-03-14T01:37:41.660Z,101026.38
2023-03-14T01:40:17.548Z,101029.69
2023-03-14T01:42:56.745Z,101031.75
2023-03-14T01:46:01.851Z,101031.56
2023-03-14T01:48:44.063Z,101040.28
2023-03-14T01:51:18.766Z,101034.97
2023-03-14T01:53:47.676Z,101037.69
2023-03-14T01:56:16.876Z,101034.44
2023-03-14T01:58:47.835Z,101029.88
2023-03-14T02:01:18.132Z,101040.97
2023-03-14T02:03:51.406Z,101046.47
2023-03-14T02:06:22.293Z,101031.53
2023-03-14T02:08:50.577Z,101032.09
2023-03-14T02:11:23.068Z,101033.72
2023-03-14T02:14:00.416Z,101026.16
2023-03-14T02:16:53.901Z,101021.56
2023-03-14T02:20:17.266Z,101022.47
2023-03-14T02:22:47.928Z,101028.22
2023-03-14T02:25:26.171Z,101030.94
2023-03-14T02:27:53.730Z,101031.25
2023-03-14T02:30:26.548Z,101034.88
2023-03-14T02:33:02.428Z,101040.91
2023-03-14T02:35:35.136Z,101036.47
2023-03-14T02:38:19.678Z,101051.75
2023-03-14T02:40:48.197Z,101052.69
2023-03-14T02:43:15.829Z,101046.47
2023-03-14T02:45:50.120Z,101054.53
2023-03-14T02:49:01.852Z,101060.72
2023-03-14T02:51:29.894Z,101058.56
2023-03-14T02:53:56.929Z,101048.03
2023-03-14T02:56:25.786Z,101052.81
2023-03-14T02:58:53.008Z,101053.41
2023-03-14T03:01:36.203Z,101050.69
2023-03-14T03:04:03.305Z,101052.31
2023-03-14T03:06:30.213Z,101051.50
2023-03-14T03:08:57.290Z,101047.44
2023-03-14T03:11:24.222Z,101047.25
2023-03-14T03:13:51.161Z,101053.75
2023-03-14T03:16:18.166Z,101043.53
2023-03-14T03:18:45.116Z,101038.84
2023-03-14T03:21:12.159Z,101042.22
2023-03-14T03:23:39.074Z,101026.84
2023-03-14T03:26:06.840Z,101026.47
2023-03-14T03:28:33.654Z,101029.78
2023-03-14T03:31:07.157Z,101033.03
2023-03-14T03:33:35.583Z,101029.19
2023-03-14T03:36:02.431Z,101024.78
2023-03-14T03:38:33.710Z,101024.38
2023-03-14T03:41:06.036Z,101018.00
2023-03-14T03:43:33.437Z,101011.63
2023-03-14T03:46:06.394Z,101005.41
2023-03-14T03:48:34.621Z,101005.50
2023-03-14T03:51:04.325Z,101011.28
2023-03-14T03:53:33.920Z,101017.56
2023-03-14T03:56:05.900Z,101015.31
2023-03-14T03:58:34.233Z,101007.06
2023-03-14T04:01:01.864Z,101012.75
2023-03-14T04:03:28.936Z,101021.06
2023-03-14T04:06:08.381Z,101013.06
2023-03-14T04:08:38.290Z,101009.72
2023-03-14T04:11:05.737Z,101011.78
2023-03-14T04:14:10.854Z,101013.22
2023-03-14T04:16:37.920Z,101014.97
2023-03-14T04:19:11.532Z,101004.22
2023-03-14T04:21:41.632Z,101008.31
2023-03-14T04:24:11.565Z,101011.81
2023-03-14T04:26:39.077Z,101008.06
2023-03-14T04:29:06.432Z,101005.22
2023-03-14T04:31:33.439Z,101016.88
2023-03-14T04:34:00.422Z,101010.53
2023-03-14T04:36:37.922Z,101002.13
2023-03-14T04:39:09.539Z,101010.00
2023-03-14T04:41:40.446Z,101001.22
2023-03-14T04:44:08.430Z,101004.50
2023-03-14T04:46:36.168Z,101009.69
2023-03-14T04:49:06.914Z,101005.84
2023-03-14T04:51:34.557Z,101009.44
2023-03-14T04:54:01.657Z,101008.41
2023-03-14T04:56:28.794Z,101013.53
2023-03-14T04:58:56.319Z,101014.72
2023-03-14T05:01:23.469Z,101010.41
2023-03-14T05:04:20.207Z,101004.91
2023-03-14T05:06:47.132Z,100998.66
2023-03-14T05:09:27.657Z,100998.28
2023-03-14T05:12:25.905Z,101000.69
2023-03-14T05:14:58.155Z,101000.06
2023-03-14T05:17:45.294Z,101017.75
2023-03-14T05:20:35.467Z,101013.38
2023-03-14T05:23:29.296Z,101020.91
2023-03-14T05:26:28.869Z,101020.41
2023-03-14T05:29:04.912Z,101019.28
2023-03-14T05:31:55.095Z,101019.66
2023-03-14T05:34:40.732Z,101017.19
2023-03-14T05:37:14.612Z,101020.81
2023-03-14T05:40:11.171Z,101019.81
2023-03-14T05:43:00.052Z,101028.13
2023-03-14T05:45:45.480Z,101031.88
2023-03-14T05:48:33.164Z,101029.22
2023-03-14T05:51:03.123Z,101022.19
2023-03-14T05:53:48.706Z,101020.72
2023-03-14T05:56:15.806Z,101028.09
2023-03-14T05:59:02.781Z,101027.38
2023-03-14T06:01:36.580Z,101020.50
2023-03-14T06:04:11.190Z,101029.22
2023-03-14T06:06:38.343Z,101020.16
2023-03-14T06:09:06.811Z,101027.75
2023-03-14T06:11:38.478Z,101032.31
2023-03-14T06:14:08.042Z,101013.31
2023-03-14T06:16:35.136Z,101032.38
2023-03-14T06:19:02.093Z,101022.66
2023-03-14T06:21:30.218Z,101019.66
2023-03-14T06:23:57.789Z,101021.34
2023-03-14T06:26:27.070Z,101017.50
2023-03-14T06:28:54.860Z,101023.41
2023-03-14T06:31:22.230Z,101017.50
2023-03-14T06:34:00.298Z,101013.41
2023-03-14T06:36:30.429Z,101013.72
2023-03-14T06:38:58.825Z,101011.03
2023-03-14T06:41:27.862Z,101007.16
2023-03-14T06:43:56.192Z,101007.91
2023-03-14T06:46:23.837Z,101011.91
2023-03-14T06:48:50.967Z,101010.09
2023-03-14T06:51:18.010Z,101012.00
2023-03-14T06:53:44.962Z,101006.19
2023-03-14T06:56:14.857Z,101005.09
2023-03-14T06:58:42.260Z,101003.50
2023-03-14T07:01:22.262Z,101004.75
2023-03-14T07:03:49.660Z,100997.97
2023-03-14T07:06:16.693Z,101003.91
2023-03-14T07:08:43.688Z,100982.97
2023-03-14T07:11:12.150Z,100991.81
2023-03-14T07:13:40.265Z,100995.66
2023-03-14T07:16:08.923Z,100992.50
2023-03-14T07:18:38.569Z,100995.88
2023-03-14T07:21:08.295Z,100993.66
2023-03-14T07:23:35.257Z,100983.03
2023-03-14T07:40:08.421Z,100980.84
2023-03-14T07:42:37.791Z,100985.38
2023-03-14T07:45:28.315Z,100986.97
2023-03-14T07:47:58.575Z,100979.50
2023-03-14T07:50:26.818Z,100976.63
2023-03-14T07:52:55.498Z,100971.16
2023-03-14T07:55:22.449Z,100971.81
2023-03-14T07:57:49.360Z,100977.88
2023-03-14T08:00:16.621Z,100978.84
2023-03-14T08:02:43.756Z,100969.41
2023-03-14T08:05:11.216Z,100971.03
2023-03-14T08:07:38.066Z,100959.00
2023-03-14T08:10:05.721Z,100973.84
2023-03-14T08:12:32.565Z,100966.06
2023-03-14T08:15:00.705Z,100959.50
2023-03-14T08:17:29.004Z,100960.97
2023-03-14T08:19:55.986Z,100945.59
2023-03-14T08:22:22.866Z,100954.34
2023-03-14T08:24:49.901Z,100958.41
2023-03-14T08:27:16.851Z,100946.56
2023-03-14T08:29:43.785Z,100950.34
2023-03-14T08:32:10.787Z,100953.50
2023-03-14T08:34:38.603Z,100951.88
2023-03-14T08:37:16.303Z,100950.53
2023-03-14T08:39:50.580Z,100945.47
2023-03-14T08:42:17.680Z,100925.31
2023-03-14T08:44:45.075Z,100944.09
2023-03-14T08:47:12.280Z,100932.31
2023-03-14T08:49:39.195Z,100928.63
2023-03-14T08:52:06.226Z,100929.22
2023-03-14T08:54:33.309Z,100927.72
2023-03-14T08:57:00.173Z,100915.47
2023-03-14T08:59:27.381Z,100924.38
2023-03-14T09:01:55.633Z,100913.75
2023-03-14T09:04:22.948Z,100911.34
2023-03-14T09:06:49.881Z,100905.41
2023-03-14T09:09:16.992Z,100908.13
2023-03-14T09:11:43.912Z,100894.59
2023-03-14T09:14:10.877Z,100905.94
2023-03-14T09:16:37.893Z,100898.38
2023-03-14T09:19:04.932Z,100901.81
2023-03-14T09:21:31.805Z,100898.97
2023-03-14T09:23:58.696Z,100893.31
2023-03-14T09:26:25.548Z,100892.50
2023-03-14T09:28:52.553Z,100902.38
2023-03-14T09:31:19.640Z,100892.94
2023-03-14T09:33:46.569Z,100901.25
2023-03-14T09:36:14.484Z,100896.78
2023-03-14T09:38:41.469Z,100894.06
2023-03-14T09:41:22.470Z,100890.34
2023-03-14T09:43:55.898Z,100883.34
2023-03-14T09:46:23.118Z,100885.09
2023-03-14T09:48:50.014Z,100877.78
2023-03-14T09:51:21.482Z,100881.78
2023-03-14T09:53:50.217Z,100885.84
2023-03-14T09:56:37.371Z,100882.03
2023-03-14T09:59:06.299Z,100874.47
2023-03-14T10:01:34.896Z,100878.69
2023-03-14T10:04:08.055Z,100876.25
2023-03-14T10:06:37.175Z,100870.97
2023-03-14T10:09:05.668Z,100865.97
2023-03-14T10:11:33.143Z,100864.13
2023-03-14T10:14:10.209Z,100855.00
2023-03-14T10:16:42.681Z,100861.38
2023-03-14T10:19:15.861Z,100851.03
2023-03-14T10:21:53.836Z,100852.41
2023-03-14T10:24:28.112Z,100843.66
2023-03-14T10:26:59.270Z,100858.25
2023-03-14T10:29:26.389Z,100836.28
2023-03-14T10:32:02.127Z,100837.13
2023-03-14T10:34:32.745Z,100828.19
2023-03-14T10:37:22.974Z,100830.41
2023-03-14T10:39:51.499Z,100824.16
2023-03-14T10:42:25.694Z,100821.94
2023-03-14T10:44:58.183Z,100815.56
2023-03-14T10:47:28.216Z,100796.88
2023-03-14T10:49:56.322Z,100796.72
2023-03-14T10:52:31.330Z,100784.72
2023-03-14T10:55:12.806Z,100778.91
2023-03-14T10:57:43.408Z,100778.22
2023-03-14T11:00:17.847Z,100777.09
2023-03-14T11:03:02.118Z,100770.59
2023-03-14T11:05:35.435Z,100772.13
2023-03-14T11:08:12.787Z,100761.47
2023-03-14T11:10:44.121Z,100757.44
2023-03-14T11:13:40.800Z,100752.97
2023-03-14T11:16:30.568Z,100744.31
2023-03-14T11:19:03.438Z,100735.13
2023-03-14T11:22:02.528Z,100729.66
2023-03-14T11:24:38.189Z,100707.31
2023-03-14T11:27:16.962Z,100715.88
2023-03-14T11:30:00.584Z,100708.19
2023-03-14T11:32:45.634Z,100705.03
2023-03-14T11:35:21.220Z,100690.91
2023-03-14T11:38:12.770Z,100694.28
2023-03-14T11:40:41.117Z,100675.22
2023-03-14T11:43:42.489Z,100676.41
2023-03-14T11:46:42.470Z,100675.28
2023-03-14T11:49:15.093Z,100674.72
2023-03-14T11:51:47.143Z,100670.81
2023-03-14T11:54:33.954Z,100658.22
2023-03-14T11:57:06.514Z,100653.41
2023-03-14T11:59:43.808Z,100652.06
2023-03-14T12:02:30.838Z,100645.00
2023-03-14T12:05:36.270Z,100635.50
2023-03-14T12:08:28.524Z,100634.00
2023-03-14T12:11:05.264Z,100635.88
2023-03-14T12:13:38.752Z,100616.50
2023-03-14T12:16:27.735Z,100618.84
2023-03-14T12:18:55.393Z,100616.59
2023-03-14T12:21:24.014Z,100589.97
2023-03-14T12:23:53.810Z,100595.75
2023-03-14T12:26:26.275Z,100589.75
2023-03-14T12:28:58.911Z,100587.19
2023-03-14T12:31:32.184Z,100571.03
2023-03-14T12:34:25.639Z,100588.88
2023-03-14T12:36:59.429Z,100572.88
2023-03-14T12:39:36.428Z,100575.03
2023-03-14T12:42:09.991Z,100565.25
2023-03-14T12:44:49.190Z,100577.25
2023-03-14T12:47:19.144Z,100567.97
2023-03-14T12:49:58.400Z,100564.13
2023-03-14T12:52:50.909Z,100561.06
2023-03-14T12:55:33.504Z,100552.72
2023-03-14T12:58:17.188Z,100543.53
2023-03-14T13:00:44.417Z,100536.63
2023-03-14T13:03:17.115Z,100538.88
2023-03-14T13:06:02.986Z,100529.81
2023-03-14T13:08:42.447Z,100523.50
2023-03-14T13:11:17.033Z,100532.16
2023-03-14T13:13:49.325Z,100531.75
2023-03-14T13:16:23.202Z,100520.75
2023-03-14T13:18:59.885Z,100530.22
2023-03-14T13:21:29.150Z,100519.75
2023-03-14T13:24:01.960Z,100515.56
2023-03-14T13:26:43.752Z,100516.38
2023-03-14T13:29:22.806Z,100515.69
2023-03-14T13:31:53.095Z,100512.94
2023-03-14T13:34:20.274Z,100503.78
2023-03-14T13:36:50.411Z,100489.22
2023-03-14T13:39:25.751Z,100490.53
2023-03-14T13:41:54.043Z,100483.72
2023-03-14T13:44:29.297Z,100482.69
2023-03-14T13:47:01.054Z,100474.34
2023-03-14T13:49:32.385Z,100474.16
2023-03-14T13:51:59.903Z,100472.63
2023-03-14T13:54:28.692Z,100456.53
2023-03-14T13:57:06.908Z,100463.16
2023-03-14T13:59:37.089Z,100455.84
2023-03-14T14:02:23.589Z,100455.41
2023-03-14T14:04:50.489Z,100455.22
2023-03-14T14:07:21.647Z,100443.72
2023-03-14T14:09:53.811Z,100446.50
2023-03-14T14:12:36.551Z,100457.47
2023-03-14T14:15:21.646Z,100438.63
2023-03-14T14:18:00.351Z,100442.50
2023-03-14T14:20:35.952Z,100440.16
2023-03-14T14:23:10.724Z,100437.31
2023-03-14T14:25:37.747Z,100425.00
2023-03-14T14:28:31.021Z,100433.03
2023-03-14T14:31:14.757Z,100422.66
2023-03-14T14:33:47.891Z,100419.31
2023-03-14T14:36:17.770Z,100418.00
2023-03-14T14:38:51.274Z,100423.84
2023-03-14T14:41:20.140Z,100413.50
2023-03-14T14:43:48.033Z,100415.63
2023-03-14T14:46:19.771Z,100401.63
2023-03-14T14:48:50.630Z,100405.66
2023-03-14T14:51:32.749Z,100406.09
2023-03-14T14:54:05.271Z,100402.09
2023-03-14T14:56:37.983Z,100402.69
2023-03-14T14:59:08.247Z,100404.72
2023-03-14T15:01:41.194Z,100394.38
2023-03-14T15:04:14.838Z,100398.63
2023-03-14T15:06:47.865Z,100392.31
2023-03-14T15:09:15.607Z,100385.09
2023-03-14T15:11:42.448Z,100379.22
2023-03-14T15:14:09.289Z,100385.09
2023-03-14T15:16:36.776Z,100383.28
2023-03-14T15:19:23.683Z,100370.47
2023-03-14T15:21:54.018Z,100383.72
2023-03-14T15:24:21.232Z,100370.75
2023-03-14T15:26:48.170Z,100370.63
2023-03-14T15:29:15.094Z,100370.13
2023-03-14T15:31:44.163Z,100368.91
2023-03-14T15:34:11.227Z,100366.34
2023-03-14T15:36:39.074Z,100366.72
2023-03-14T15:39:07.801Z,100361.44
2023-03-14T15:41:34.808Z,100359.03
2023-03-14T15:44:01.963Z,100357.41
2023-03-14T15:46:31.046Z,100366.22
2023-03-14T15:48:58.504Z,100364.97
2023-03-14T15:51:25.438Z,100362.53
2023-03-14T15:53:52.841Z,100354.47
2023-03-14T15:56:21.663Z,100358.06
2023-03-14T15:58:48.864Z,100356.97
2023-03-14T16:01:17.250Z,100359.50
2023-03-14T16:03:47.599Z,100363.72
2023-03-14T16:06:17.768Z,100361.25
2023-03-14T16:08:44.567Z,100353.03
2023-03-14T16:11:15.155Z,100360.16
2023-03-14T16:13:42.240Z,100360.22
2023-03-14T16:16:11.324Z,100359.50
2023-03-14T16:18:39.718Z,100359.81
2023-03-14T16:21:19.695Z,100363.66
2023-03-14T16:23:46.831Z,100361.78
2023-03-14T16:26:19.948Z,100365.34
2023-03-14T16:28:47.741Z,100360.41
2023-03-14T16:31:17.634Z,100366.16
2023-03-14T16:33:45.041Z,100358.00
2023-03-14T16:36:14.199Z,100356.97
2023-03-14T16:38:43.448Z,100356.91
2023-03-14T16:41:12.510Z,100367.72
2023-03-14T16:43:39.793Z,100359.13
2023-03-14T16:46:08.953Z,100347.66
2023-03-14T16:48:35.889Z,100365.25
2023-03-14T16:51:02.847Z,100358.41
2023-03-14T16:53:30.432Z,100360.31
2023-03-14T16:55:58.530Z,100359.28
2023-03-14T16:58:25.911Z,100351.44
2023-03-14T17:00:52.849Z,100361.34
2023-03-14T17:03:20.153Z,100355.22
2023-03-14T17:05:48.837Z,100350.13
2023-03-14T17:08:17.867Z,100348.63
2023-03-14T17:10:45.656Z,100352.84
2023-03-14T17:13:13.391Z,100355.88
2023-03-14T17:15:45.809Z,100355.19
2023-03-14T17:18:12.822Z,100346.41
2023-03-14T17:20:41.159Z,100348.31
2023-03-14T17:23:09.084Z,100353.53
2023-03-14T17:25:37.816Z,100339.22
2023-03-14T17:28:05.818Z,100356.75
2023-03-14T17:30:33.260Z,100344.09
2023-03-14T17:33:00.192Z,100354.56
2023-03-14T17:35:27.257Z,100358.69
2023-03-14T17:37:54.336Z,100374.31
2023-03-14T17:40:21.249Z,100366.38
2023-03-14T17:42:48.158Z,100356.09
2023-03-14T17:45:15.101Z,100351.16
2023-03-14T17:47:42.019Z,100358.09
2023-03-14T17:50:09.882Z,100360.59
2023-03-14T17:52:37.232Z,100344.16
2023-03-14T17:55:06.025Z,100342.25
2023-03-14T17:57:33.599Z,100346.78
2023-03-14T18:00:00.450Z,100345.72
2023-03-14T18:02:27.520Z,100345.13
2023-03-14T18:04:54.681Z,100351.06
2023-03-14T18:07:22.002Z,100330.69
2023-03-14T18:09:48.930Z,100338.63
2023-03-14T18:12:16.065Z,100346.19
2023-03-14T18:14:46.019Z,100341.59
2023-03-14T18:17:13.470Z,100341.16
2023-03-14T18:19:41.360Z,100334.63
2023-03-14T18:22:08.775Z,100342.41
2023-03-14T18:24:35.640Z,100328.72
2023-03-14T18:27:04.179Z,100315.16
2023-03-14T18:29:31.064Z,100325.81
2023-03-14T18:31:58.447Z,100323.22
2023-03-14T18:34:25.769Z,100310.75
2023-03-14T18:36:53.285Z,100316.06
2023-03-14T18:39:20.120Z,100314.59
2023-03-14T18:41:47.093Z,100323.69
2023-03-14T18:44:13.958Z,100307.91
2023-03-14T18:46:42.563Z,100303.44
2023-03-14T18:49:11.183Z,100301.91
2023-03-14T18:51:38.230Z,100295.16
2023-03-14T18:54:10.285Z,100304.28
2023-03-14T18:56:39.886Z,100299.41
2023-03-14T18:59:07.379Z,100296.88
2023-03-14T19:01:34.598Z,100279.69
2023-03-14T19:04:02.774Z,100290.38
2023-03-14T19:06:34.039Z,100286.59
2023-03-14T19:09:02.363Z,100280.81
2023-03-14T19:11:29.285Z,100283.84
2023-03-14T19:13:57.061Z,100260.75
2023-03-14T19:16:24.906Z,100273.03
2023-03-14T19:18:52.565Z,100277.88
2023-03-14T19:21:35.658Z,100271.06
2023-03-14T19:24:06.246Z,100254.25
2023-03-14T19:41:39.602Z,100234.66
2023-03-14T19:44:06.581Z,100227.41
2023-03-14T19:46:36.097Z,100228.25
2023-03-14T19:49:03.209Z,100227.28
2023-03-14T19:51:31.354Z,100227.78
2023-03-14T19:54:03.270Z,100225.78
2023-03-14T19:56:30.198Z,100220.31
2023-03-14T19:58:57.188Z,100219.88
2023-03-14T20:01:24.471Z,100218.06
2023-03-14T20:03:52.119Z,100200.78
2023-03-14T20:06:18.933Z,100204.03
2023-03-14T20:08:45.842Z,100193.94
2023-03-14T20:11:12.791Z,100188.63
2023-03-14T20:13:40.082Z,100191.22
2023-03-14T20:16:10.738Z,100191.63
2023-03-14T20:18:38.184Z,100182.47
2023-03-14T20:21:10.380Z,100186.56
2023-03-14T20:23:37.333Z,100174.72
2023-03-14T20:26:04.961Z,100173.44
2023-03-14T20:28:32.672Z,100154.63
2023-03-14T20:30:59.978Z,100155.13
2023-03-14T20:33:26.942Z,100165.16
2023-03-14T20:35:56.184Z,100156.16
2023-03-14T20:38:24.422Z,100148.03
2023-03-14T20:40:51.343Z,100168.28
2023-03-14T20:43:18.278Z,100167.00
2023-03-14T20:45:55.179Z,100159.66
2023-03-14T20:48:23.274Z,100165.06
2023-03-14T20:50:50.539Z,100151.28
2023-03-14T20:53:18.202Z,100153.63
2023-03-14T20:55:45.714Z,100154.50
2023-03-14T20:58:13.382Z,100143.94
2023-03-14T21:00:48.818Z,100137.50
2023-03-14T21:03:17.178Z,100127.50
2023-03-14T21:05:49.036Z,100135.56
2023-03-14T21:08:20.364Z,100134.09
2023-03-14T21:10:52.641Z,100134.53
2023-03-14T21:13:21.653Z,100136.88
2023-03-14T21:15:48.974Z,100134.31
2023-03-14T21:18:16.269Z,100120.22
2023-03-14T21:20:43.865Z,100117.78
2023-03-14T21:23:12.114Z,100117.38
2023-03-14T21:25:41.839Z,100112.84
2023-03-14T21:28:10.149Z,100096.28
2023-03-14T21:30:37.354Z,100107.84
2023-03-14T21:33:04.314Z,100104.91
2023-03-14T21:35:31.204Z,100108.53
2023-03-14T21:37:58.081Z,100096.06
2023-03-14T21:40:25.632Z,100094.25
2023-03-14T21:42:54.436Z,100088.34
2023-03-14T21:45:25.949Z,100084.41
2023-03-14T21:47:58.187Z,100085.81
2023-03-14T21:50:26.743Z,100079.13
2023-03-14T21:52:57.026Z,100075.47
2023-03-14T21:55:25.704Z,100078.22
2023-03-14T21:57:55.606Z,100071.13
2023-03-14T22:00:25.718Z,100090.56
2023-03-14T22:03:11.692Z,100088.34
2023-03-14T22:05:43.586Z,100083.69
2023-03-14T22:08:10.927Z,100082.75
2023-03-14T22:10:50.475Z,100087.09
2023-03-14T22:13:17.817Z,100088.94
2023-03-14T22:15:46.374Z,100084.88
2023-03-14T22:18:14.420Z,100091.22
2023-03-14T22:20:42.044Z,100080.66
2023-03-14T22:23:09.475Z,100089.88
2023-03-14T22:25:39.846Z,100080.47
2023-03-14T22:28:06.723Z,100083.50
2023-03-14T22:30:33.657Z,100083.78
2023-03-14T22:33:00.811Z,100091.22
2023-03-14T22:35:28.483Z,100078.63
2023-03-14T22:37:55.294Z,100082.56
2023-03-14T22:40:22.249Z,100080.34
2023-03-14T22:42:52.407Z,100071.59
2023-03-14T22:45:19.565Z,100074.66
2023-03-14T22:47:46.684Z,100068.69
2023-03-14T22:50:13.822Z,100072.88
2023-03-14T22:52:40.717Z,100053.09
2023-03-14T22:55:08.129Z,100056.41
2023-03-14T22:57:35.450Z,100064.84
2023-03-14T23:00:04.460Z,100061.50
2023-03-14T23:02:32.005Z,100061.19
2023-03-14T23:04:59.066Z,100062.13
2023-03-14T23:07:29.367Z,100055.50
2023-03-14T23:09:56.494Z,100067.28
2023-03-14T23:12:23.350Z,100069.13
2023-03-14T23:14:50.190Z,100061.00
2023-03-14T23:17:17.138Z,100056.16
2023-03-14T23:19:45.628Z,100055.13
2023-03-14T23:22:12.926Z,100059.81
2023-03-14T23:24:39.806Z,100043.66
2023-03-14T23:27:06.670Z,100038.59
2023-03-14T23:29:33.605Z,100037.59
2023-03-14T23:32:00.431Z,100025.31
2023-03-14T23:34:27.362Z,100018.41
2023-03-14T23:36:54.451Z,100026.03
2023-03-14T23:39:21.268Z,100006.53
2023-03-14T23:41:48.155Z,99999.94
2023-03-14T23:44:15.176Z,100008.06
2023-03-14T23:46:42.082Z,100012.44
2023-03-14T23:49:08.941Z,99996.19
2023-03-14T23:51:35.945Z,100000.56
2023-03-14T23:54:02.807Z,99994.88
2023-03-14T23:56:31.440Z,99987.78
2023-03-14T23:58:58.596Z,99990.72
